North Mountain, Pennsylvania
Current Conditions -  °F | °C
As of 2:42 AM on Thursday 23 Oct 2014 (Local Time) from KIPT Reporting Station
Light Rain Light Rain  
Wind Chill: 50°   Ceiling: 5500
Heat Index: 50°   Visibility: 10mi
Dew Point: 41°   Wind: 12mph
Humidity: 71%   Direction: 330°NNW
Pressure: 29.95"   Gusts: 21mph
Location:  41.3719°N, 76.499°W
Report Text: KIPT 230642Z AUTO 33010G18KT 10SM -RA SCT026 OVC055 10/05 A2995 RMK AO2 RAB27 P0000 T01000050
Loading
Personal Weather Stations






























Interactive Weather Map
Tropical Storm Tracking
New forecast layout! Learn more

10-Day Weather Forecast

Advertisements
Track Severe Weather on mobile